KCOF/COF METAR and TAF weather

Enter ICAO airport designator
Station Type Date Time Source
KCOF METAR 2021/05/12 04:56 UTC NOAA

KCOF 120456Z AUTO 22006KT 10SM CLR 26/21 A3006 RMK AO2 SLP184 T02570209 403060228 $


Station Type Date Time Source
KCOF Decoded METAR 2021/05/12 04:56 UTC NOAA

Cocoa / Patrick Air Force Base, FL, United States (KCOF) 28-14N 080-36W 3M
May 12, 2021 - 12:56 AM EDT / 2021.05.12 0456 UTC
Wind: from the SW (220 degrees) at 7 MPH (6 KT):0
Visibility: 10 mile(s):0
Sky conditions: clear
Temperature: 78.3 F (25.7 C)
Dew Point: 69.6 F (20.9 C)
Relative Humidity: 74%
Pressure (altimeter): 30.06 in. Hg (1017 hPa)
ob: KCOF 120456Z AUTO 22006KT 10SM CLR 26/21 A3006 RMK AO2 SLP184 T02570209 403060228
cycle: 5

Station Type Date Time Source
KCOF TAF 2021/05/12 02:10 UTC NOAA

TAF KCOF 120200Z 1202/1308 VRB06KT 9999 SCT060 BKN200 QNH3002INS
BECMG 1214/1215 20010KT 9999 BKN035 BKN200 QNH2999INS
BECMG 1219/1220 24015G25KT 6000 -TSRA BKN015CB OVC200 QNH2999INS
BECMG 1223/1224 VRB06KT 9999 NSW BKN040 BKN200 QNH3002INS TX31/1219Z TN23/1209Z LAST NO
AMDS AFT 1204 NEXT 1210

Example: see airport list